createdAt,value
2023-02-19T00:01:25.918Z,8.57
2023-02-19T00:03:56.415Z,8.37
2023-02-19T00:06:24.869Z,8.27
2023-02-19T00:08:51.397Z,9.07
2023-02-19T00:11:20.153Z,9.10
2023-02-19T00:13:49.274Z,10.37
2023-02-19T00:16:18.448Z,9.43
2023-02-19T00:18:45.390Z,9.77
2023-02-19T00:21:12.322Z,11.53
2023-02-19T00:23:39.146Z,9.50
2023-02-19T00:26:17.490Z,11.60
2023-02-19T00:28:45.713Z,11.33
2023-02-19T00:31:19.276Z,9.70
2023-02-19T00:33:48.864Z,11.87
2023-02-19T00:36:15.778Z,9.83
2023-02-19T00:38:43.572Z,11.30
2023-02-19T00:41:20.095Z,10.80
2023-02-19T00:43:54.720Z,10.30
2023-02-19T00:46:31.674Z,10.07
2023-02-19T00:48:58.982Z,9.77
2023-02-19T00:51:28.664Z,9.00
2023-02-19T00:53:55.499Z,8.57
2023-02-19T00:56:22.442Z,8.77
2023-02-19T00:58:49.378Z,7.73
2023-02-19T01:01:16.722Z,7.50
2023-02-19T01:03:43.856Z,6.80
2023-02-19T01:06:11.332Z,6.57
2023-02-19T01:08:38.338Z,5.90
2023-02-19T01:11:05.800Z,6.20
2023-02-19T01:13:33.490Z,6.13
2023-02-19T01:16:21.248Z,5.47
2023-02-19T01:18:49.288Z,5.00
2023-02-19T01:21:21.896Z,5.00
2023-02-19T01:23:53.385Z,4.00
2023-02-19T01:26:22.713Z,4.33
2023-02-19T01:28:49.788Z,4.07
2023-02-19T01:31:20.357Z,3.67
2023-02-19T01:33:48.792Z,3.90
2023-02-19T01:36:15.886Z,3.67
2023-02-19T01:38:42.834Z,3.23
2023-02-19T01:41:12.732Z,3.97
2023-02-19T01:44:04.388Z,2.83
2023-02-19T01:46:33.344Z,2.80
2023-02-19T01:49:04.738Z,3.00
2023-02-19T01:51:32.675Z,2.97
2023-02-19T01:54:00.729Z,2.77
2023-02-19T01:56:27.757Z,2.30
2023-02-19T01:58:54.738Z,2.43
2023-02-19T02:01:21.457Z,2.77
2023-02-19T02:03:49.005Z,2.53
2023-02-19T02:06:25.034Z,2.70
2023-02-19T02:09:12.741Z,2.37
2023-02-19T02:11:42.749Z,2.70
2023-02-19T02:14:09.214Z,3.17
2023-02-19T02:16:52.710Z,3.70
2023-02-19T02:19:44.080Z,3.63
2023-02-19T02:22:21.129Z,3.20
2023-02-19T02:25:21.440Z,2.73
2023-02-19T02:27:53.937Z,2.70
2023-02-19T02:30:36.036Z,2.70
2023-02-19T02:33:07.300Z,3.17
2023-02-19T02:35:40.051Z,2.60
2023-02-19T02:38:08.416Z,3.27
2023-02-19T02:40:34.989Z,2.87
2023-02-19T02:43:01.650Z,2.90
2023-02-19T02:45:35.626Z,3.40
2023-02-19T02:48:25.184Z,3.07
2023-02-19T02:51:07.384Z,3.40
2023-02-19T02:54:00.555Z,2.50
2023-02-19T02:56:27.113Z,2.57
2023-02-19T02:58:54.511Z,3.00
2023-02-19T03:01:43.497Z,3.63
2023-02-19T03:04:14.381Z,3.73
2023-02-19T03:06:42.201Z,2.87
2023-02-19T03:09:15.308Z,2.97
2023-02-19T03:12:03.367Z,3.03
2023-02-19T03:14:58.017Z,3.13
2023-02-19T03:17:54.159Z,3.50
2023-02-19T03:20:23.334Z,3.10
2023-02-19T03:22:51.258Z,3.27
2023-02-19T03:25:38.721Z,3.57
2023-02-19T03:28:07.479Z,3.63
2023-02-19T03:30:36.870Z,3.37
2023-02-19T03:33:09.306Z,3.20
2023-02-19T03:35:42.475Z,3.10
2023-02-19T03:38:13.482Z,3.03
2023-02-19T03:41:10.850Z,3.00
2023-02-19T03:43:54.242Z,3.30
2023-02-19T03:46:23.251Z,3.50
2023-02-19T03:49:00.366Z,3.37
2023-02-19T03:51:32.990Z,2.80
2023-02-19T03:54:15.252Z,2.90
2023-02-19T03:56:52.528Z,3.63
2023-02-19T03:59:28.305Z,3.30
2023-02-19T04:02:05.729Z,3.30
2023-02-19T04:04:57.654Z,3.17
2023-02-19T04:07:25.676Z,3.10
2023-02-19T04:09:52.239Z,3.50
2023-02-19T04:12:19.185Z,3.67
2023-02-19T04:14:53.077Z,4.07
2023-02-19T04:17:24.011Z,3.23
2023-02-19T04:19:51.635Z,3.10
2023-02-19T04:22:18.430Z,4.03
2023-02-19T04:24:48.316Z,3.40
2023-02-19T04:27:15.066Z,3.50
2023-02-19T04:29:41.602Z,4.00
2023-02-19T04:32:10.851Z,3.67
2023-02-19T04:34:37.327Z,4.13
2023-02-19T04:37:04.012Z,3.67
2023-02-19T04:39:30.556Z,3.60
2023-02-19T04:41:57.094Z,3.77
2023-02-19T04:44:23.601Z,3.60
2023-02-19T04:46:50.062Z,3.30
2023-02-19T04:49:16.525Z,3.37
2023-02-19T04:51:43.000Z,3.67
2023-02-19T04:54:09.594Z,3.30
2023-02-19T04:56:36.054Z,3.60
2023-02-19T04:59:02.572Z,3.60
2023-02-19T05:01:29.303Z,4.00
2023-02-19T05:03:55.899Z,4.20
2023-02-19T05:06:22.384Z,4.20
2023-02-19T05:08:48.958Z,4.43
2023-02-19T05:11:15.469Z,3.80
2023-02-19T05:13:42.081Z,4.47
2023-02-19T05:16:13.971Z,4.30
2023-02-19T05:18:41.416Z,4.03
2023-02-19T05:21:08.517Z,4.37
2023-02-19T05:23:35.333Z,4.37
2023-02-19T05:26:09.584Z,4.13
2023-02-19T05:28:36.337Z,4.50
2023-02-19T05:31:07.872Z,5.07
2023-02-19T05:33:34.939Z,5.07
2023-02-19T05:36:06.078Z,4.97
2023-02-19T05:38:32.566Z,4.10
2023-02-19T05:41:08.606Z,4.13
2023-02-19T05:43:35.372Z,4.57
2023-02-19T05:46:01.879Z,3.93
2023-02-19T05:48:28.382Z,4.20
2023-02-19T05:50:54.882Z,4.13
2023-02-19T05:53:21.332Z,4.13
2023-02-19T05:55:47.784Z,3.83
2023-02-19T05:58:14.235Z,3.57
2023-02-19T06:00:40.710Z,4.60
2023-02-19T06:03:07.227Z,4.70
2023-02-19T06:05:33.717Z,4.40
2023-02-19T06:08:00.161Z,3.53
2023-02-19T06:10:28.308Z,3.77
2023-02-19T06:12:55.154Z,3.20
2023-02-19T06:15:21.927Z,3.90
2023-02-19T06:17:48.842Z,3.00
2023-02-19T06:20:15.487Z,3.30
2023-02-19T06:22:41.980Z,2.80
2023-02-19T06:25:12.525Z,2.80
2023-02-19T06:27:39.534Z,3.60
2023-02-19T06:30:06.634Z,3.70
2023-02-19T06:32:33.242Z,3.60
2023-02-19T06:34:59.792Z,3.10
2023-02-19T06:37:26.230Z,3.20
2023-02-19T06:39:52.720Z,3.47
2023-02-19T06:42:19.285Z,3.07
2023-02-19T06:44:45.780Z,2.53
2023-02-19T06:47:12.276Z,2.77
2023-02-19T06:49:41.820Z,2.77
2023-02-19T06:52:08.475Z,2.63
2023-02-19T06:54:34.963Z,2.77
2023-02-19T06:57:01.683Z,3.13
2023-02-19T06:59:28.231Z,2.80
2023-02-19T07:01:54.683Z,2.50
2023-02-19T07:04:21.242Z,2.83
2023-02-19T07:06:47.771Z,3.30
2023-02-19T07:09:14.313Z,2.70
2023-02-19T07:11:40.810Z,2.37
2023-02-19T07:14:08.871Z,2.10
2023-02-19T07:16:36.258Z,2.50
2023-02-19T07:19:02.997Z,2.47
2023-02-19T07:21:29.764Z,2.40
2023-02-19T07:23:57.044Z,2.13
2023-02-19T07:26:24.036Z,2.50
2023-02-19T07:28:51.860Z,2.10
2023-02-19T07:31:20.061Z,2.57
2023-02-19T07:33:47.200Z,2.30
2023-02-19T07:36:15.240Z,2.50
2023-02-19T07:38:41.712Z,2.07
2023-02-19T07:41:08.592Z,2.33
2023-02-19T07:43:36.600Z,2.00
2023-02-19T07:46:05.027Z,2.10
2023-02-19T07:48:31.518Z,2.17
2023-02-19T07:51:00.059Z,2.07
2023-02-19T07:53:27.417Z,3.20
2023-02-19T07:55:54.022Z,2.77
2023-02-19T07:58:20.479Z,2.33
2023-02-19T08:00:46.950Z,2.20
2023-02-19T08:03:13.440Z,2.43
2023-02-19T08:05:42.203Z,2.60
2023-02-19T08:08:10.873Z,2.63
2023-02-19T08:10:55.996Z,2.40
2023-02-19T08:13:23.206Z,2.70
2023-02-19T08:15:52.134Z,1.97
2023-02-19T08:18:20.578Z,2.40
2023-02-19T08:20:47.214Z,2.30
2023-02-19T08:23:14.013Z,2.47
2023-02-19T08:25:41.400Z,2.57
2023-02-19T08:28:09.903Z,2.10
2023-02-19T08:30:38.515Z,2.17
2023-02-19T08:33:06.813Z,2.07
2023-02-19T08:35:35.804Z,2.13
2023-02-19T08:38:02.904Z,1.90
2023-02-19T08:40:29.461Z,2.73
2023-02-19T08:42:55.930Z,2.33
2023-02-19T08:45:24.279Z,2.40
2023-02-19T08:47:50.841Z,2.67
2023-02-19T08:50:17.328Z,1.93
2023-02-19T08:52:43.800Z,1.90
2023-02-19T08:55:10.337Z,2.23
2023-02-19T08:57:41.585Z,2.00
2023-02-19T09:00:09.096Z,2.10
2023-02-19T09:02:35.985Z,2.27
2023-02-19T09:05:02.509Z,2.63
2023-02-19T09:07:29.046Z,2.50
2023-02-19T09:09:55.508Z,2.10
2023-02-19T09:12:21.971Z,1.93
2023-02-19T09:14:48.619Z,2.57
2023-02-19T09:17:15.127Z,2.47
2023-02-19T09:19:41.903Z,2.13
2023-02-19T09:22:08.659Z,2.23
2023-02-19T09:24:35.398Z,1.93
2023-02-19T09:27:01.914Z,2.03
2023-02-19T09:29:29.096Z,2.50
2023-02-19T09:31:59.554Z,2.43
2023-02-19T09:34:27.301Z,2.20
2023-02-19T09:36:54.722Z,2.20
2023-02-19T09:39:21.498Z,2.00
2023-02-19T09:41:56.109Z,2.50
2023-02-19T09:44:29.262Z,2.10
2023-02-19T09:46:56.332Z,2.70
2023-02-19T09:49:30.943Z,2.37
2023-02-19T09:52:07.277Z,2.27
2023-02-19T09:54:39.568Z,1.80
2023-02-19T09:57:13.187Z,2.03
2023-02-19T09:59:42.461Z,2.13
2023-02-19T10:02:16.151Z,2.20
2023-02-19T10:04:44.043Z,2.17
2023-02-19T10:07:13.410Z,1.97
2023-02-19T10:09:39.982Z,1.50
2023-02-19T10:12:19.280Z,1.87
2023-02-19T10:14:49.114Z,2.00
2023-02-19T10:17:27.667Z,2.40
2023-02-19T10:19:54.247Z,1.60
2023-02-19T10:22:20.782Z,1.67
2023-02-19T10:24:51.747Z,2.00
2023-02-19T10:27:18.743Z,1.70
2023-02-19T10:29:46.901Z,1.77
2023-02-19T10:32:24.165Z,2.13
2023-02-19T10:35:09.633Z,1.90
2023-02-19T10:37:36.886Z,1.90
2023-02-19T10:40:03.607Z,2.20
2023-02-19T10:42:30.173Z,2.17
2023-02-19T10:45:01.808Z,1.60
2023-02-19T10:47:30.255Z,2.13
2023-02-19T10:49:58.410Z,1.97
2023-02-19T10:52:28.695Z,2.10
2023-02-19T10:55:25.705Z,2.53
2023-02-19T10:57:52.164Z,2.40
2023-02-19T11:00:30.557Z,2.23
2023-02-19T11:03:32.684Z,1.90
2023-02-19T11:06:03.856Z,2.27
2023-02-19T11:08:31.318Z,1.67
2023-02-19T11:10:57.856Z,1.77
2023-02-19T11:13:33.296Z,1.97
2023-02-19T11:16:00.322Z,2.23
2023-02-19T11:18:33.382Z,1.90
2023-02-19T11:21:05.122Z,1.80
2023-02-19T11:23:37.386Z,1.80
2023-02-19T11:26:06.541Z,1.77
2023-02-19T11:28:35.465Z,1.90
2023-02-19T11:31:20.387Z,2.33
2023-02-19T11:33:57.247Z,3.00
2023-02-19T11:36:31.026Z,2.07
2023-02-19T11:38:59.207Z,2.20
2023-02-19T11:41:44.011Z,2.37
2023-02-19T11:44:31.811Z,2.73
2023-02-19T11:47:17.260Z,2.73
2023-02-19T11:49:50.283Z,2.07
2023-02-19T11:52:58.910Z,1.97
2023-02-19T11:55:47.030Z,1.80
2023-02-19T11:58:44.519Z,1.77
2023-02-19T12:01:33.773Z,1.93
2023-02-19T12:04:31.194Z,1.50
2023-02-19T12:07:11.702Z,1.70
2023-02-19T12:10:04.146Z,1.40
2023-02-19T12:12:41.692Z,1.70
2023-02-19T12:15:26.406Z,1.73
2023-02-19T12:18:00.031Z,1.40
2023-02-19T12:20:41.665Z,1.57
2023-02-19T12:23:38.455Z,1.20
2023-02-19T12:26:16.925Z,1.63
2023-02-19T12:28:43.346Z,1.37
2023-02-19T12:31:34.672Z,1.50
2023-02-19T12:34:10.788Z,1.47
2023-02-19T12:36:54.497Z,1.70
2023-02-19T12:39:34.258Z,1.50
2023-02-19T12:42:25.974Z,1.20
2023-02-19T12:44:58.783Z,1.60
2023-02-19T12:47:29.893Z,1.17
2023-02-19T12:50:24.755Z,1.40
2023-02-19T12:52:57.318Z,1.37
2023-02-19T12:55:34.572Z,1.30
2023-02-19T12:58:05.885Z,1.47
2023-02-19T13:00:36.734Z,1.20
2023-02-19T13:03:09.991Z,1.30
2023-02-19T13:06:00.004Z,1.03
2023-02-19T13:08:36.566Z,1.27
2023-02-19T13:11:15.858Z,1.37
2023-02-19T13:14:24.429Z,1.30
2023-02-19T13:16:57.520Z,1.47
2023-02-19T13:19:25.379Z,1.50
2023-02-19T13:22:36.960Z,1.43
2023-02-19T13:25:08.126Z,1.20
2023-02-19T13:28:24.573Z,1.53
2023-02-19T13:31:08.618Z,1.70
2023-02-19T13:34:20.748Z,1.43
2023-02-19T13:36:49.893Z,1.40
2023-02-19T13:39:18.385Z,1.67
2023-02-19T13:42:04.189Z,1.40
2023-02-19T13:44:33.927Z,1.70
2023-02-19T13:47:01.265Z,1.37
2023-02-19T13:49:37.255Z,1.33
2023-02-19T13:52:28.941Z,1.50
2023-02-19T13:55:33.358Z,1.40
2023-02-19T13:58:33.734Z,1.57
2023-02-19T14:01:10.428Z,1.47
2023-02-19T14:03:37.896Z,1.27
2023-02-19T14:06:10.584Z,1.90
2023-02-19T14:08:51.406Z,1.50
2023-02-19T14:11:48.242Z,1.30
2023-02-19T14:14:37.440Z,1.57
2023-02-19T14:17:09.835Z,1.47
2023-02-19T14:19:42.641Z,1.43
2023-02-19T14:22:56.862Z,1.70
2023-02-19T14:25:40.112Z,1.43
2023-02-19T14:28:15.714Z,1.27
2023-02-19T14:30:50.294Z,1.70
2023-02-19T14:33:19.881Z,1.53
2023-02-19T14:35:49.229Z,1.40
2023-02-19T14:38:26.132Z,1.40
2023-02-19T14:40:53.800Z,1.47
2023-02-19T14:43:22.691Z,1.53
2023-02-19T14:46:00.944Z,1.80
2023-02-19T14:48:34.623Z,1.47
2023-02-19T14:51:06.120Z,1.30
2023-02-19T14:53:37.859Z,1.40
2023-02-19T14:56:05.198Z,1.43
2023-02-19T14:58:32.736Z,1.60
2023-02-19T15:00:59.832Z,1.40
2023-02-19T15:03:31.218Z,1.53
2023-02-19T15:06:16.429Z,1.87
2023-02-19T15:08:52.516Z,2.73
2023-02-19T15:11:21.917Z,1.60
2023-02-19T15:13:54.753Z,1.63
2023-02-19T15:16:24.669Z,1.30
2023-02-19T15:18:52.545Z,1.40
2023-02-19T15:21:23.933Z,1.30
2023-02-19T15:23:51.504Z,1.47
2023-02-19T15:26:21.611Z,1.50
2023-02-19T15:28:57.336Z,1.77
2023-02-19T15:31:23.913Z,1.80
2023-02-19T15:33:53.822Z,1.53
2023-02-19T15:36:28.140Z,1.50
2023-02-19T15:38:56.963Z,1.43
2023-02-19T15:41:25.969Z,1.57
2023-02-19T15:44:24.588Z,1.63
2023-02-19T15:46:51.261Z,1.37
2023-02-19T15:49:24.339Z,1.77
2023-02-19T15:51:56.759Z,1.60
2023-02-19T15:54:34.331Z,1.90
2023-02-19T15:57:07.442Z,1.50
2023-02-19T15:59:41.311Z,1.40
2023-02-19T16:02:13.475Z,2.17
2023-02-19T16:04:42.018Z,1.70
2023-02-19T16:07:24.006Z,1.43
2023-02-19T16:10:05.809Z,1.30
2023-02-19T16:12:32.792Z,1.40
2023-02-19T16:14:59.329Z,1.83
2023-02-19T16:17:28.113Z,1.57
2023-02-19T16:19:57.671Z,2.00
2023-02-19T16:22:26.722Z,1.97
2023-02-19T16:24:59.059Z,2.07
2023-02-19T16:27:40.676Z,2.00
2023-02-19T16:30:16.239Z,1.80
2023-02-19T16:32:45.395Z,1.90
2023-02-19T16:35:38.465Z,2.33
2023-02-19T16:38:13.683Z,2.00
2023-02-19T16:40:43.188Z,2.00
2023-02-19T16:43:15.689Z,2.23
2023-02-19T16:45:45.918Z,2.10
2023-02-19T16:48:12.903Z,2.07
2023-02-19T16:50:41.531Z,2.10
2023-02-19T16:53:19.334Z,2.03
2023-02-19T16:55:46.162Z,1.70
2023-02-19T16:58:12.730Z,2.20
2023-02-19T17:00:39.942Z,1.93
2023-02-19T17:03:11.956Z,2.43
2023-02-19T17:05:39.830Z,2.00
2023-02-19T17:08:37.120Z,2.53
2023-02-19T17:11:06.032Z,4.30
2023-02-19T17:13:33.736Z,2.93
2023-02-19T17:16:00.255Z,2.80
2023-02-19T17:18:26.793Z,3.10
2023-02-19T17:21:21.353Z,2.73
2023-02-19T17:23:47.936Z,2.77
2023-02-19T17:26:20.473Z,2.43
2023-02-19T17:28:47.396Z,2.70
2023-02-19T17:31:17.436Z,2.63
2023-02-19T17:33:44.503Z,2.30
2023-02-19T17:36:22.129Z,2.00
2023-02-19T17:38:48.679Z,1.87
2023-02-19T17:41:15.451Z,2.00
2023-02-19T17:43:41.882Z,2.30
2023-02-19T17:46:17.052Z,2.03
2023-02-19T17:48:43.643Z,2.20
2023-02-19T17:51:10.698Z,2.50
2023-02-19T17:53:37.524Z,2.30
2023-02-19T17:56:04.379Z,2.70
2023-02-19T17:58:30.886Z,2.20
2023-02-19T18:00:57.527Z,2.43
2023-02-19T18:03:24.843Z,2.17
2023-02-19T18:05:51.611Z,2.40
2023-02-19T18:08:18.277Z,2.20
2023-02-19T18:10:44.901Z,2.50
2023-02-19T18:13:11.863Z,3.13
2023-02-19T18:15:38.385Z,2.40
2023-02-19T18:18:05.007Z,3.10
2023-02-19T18:20:31.864Z,3.27
2023-02-19T18:22:58.741Z,3.03
2023-02-19T18:25:25.414Z,3.43
2023-02-19T18:27:51.929Z,1.97
2023-02-19T18:30:20.478Z,2.03
2023-02-19T18:32:49.902Z,2.50
2023-02-19T18:35:17.788Z,2.10
2023-02-19T18:37:44.291Z,2.20
2023-02-19T18:40:11.885Z,2.50
2023-02-19T18:42:39.224Z,3.30
2023-02-19T18:45:05.877Z,3.70
2023-02-19T18:47:32.326Z,5.00
2023-02-19T18:49:59.612Z,2.97
2023-02-19T18:52:27.205Z,3.53
2023-02-19T18:54:55.195Z,3.87
2023-02-19T18:57:22.723Z,2.93
2023-02-19T18:59:49.775Z,2.80
2023-02-19T19:02:16.391Z,2.80
2023-02-19T19:04:43.297Z,2.40
2023-02-19T19:07:10.367Z,2.77
2023-02-19T19:09:37.039Z,2.80
2023-02-19T19:12:03.961Z,2.57
2023-02-19T19:14:30.430Z,2.93
2023-02-19T19:16:56.994Z,2.47
2023-02-19T19:19:23.479Z,2.53
2023-02-19T19:21:53.282Z,2.50
2023-02-19T19:24:20.518Z,2.30
2023-02-19T19:26:48.996Z,2.27
2023-02-19T19:29:17.229Z,2.90
2023-02-19T19:31:44.435Z,3.87
2023-02-19T19:34:11.702Z,4.30
2023-02-19T19:36:38.507Z,5.93
2023-02-19T19:39:05.146Z,5.60
2023-02-19T19:41:31.936Z,4.43
2023-02-19T19:44:02.568Z,5.13
2023-02-19T19:46:29.141Z,5.37
2023-02-19T19:48:55.617Z,5.73
2023-02-19T19:51:22.065Z,5.50
2023-02-19T19:53:49.367Z,6.03
2023-02-19T19:56:16.938Z,5.67
2023-02-19T19:58:43.474Z,5.80
2023-02-19T20:01:10.335Z,4.90
2023-02-19T20:03:37.659Z,3.97
2023-02-19T20:06:04.434Z,3.50
2023-02-19T20:08:30.916Z,3.50
2023-02-19T20:10:57.387Z,3.47
2023-02-19T20:13:24.731Z,3.10
2023-02-19T20:15:51.880Z,3.13
2023-02-19T20:18:18.366Z,2.43
2023-02-19T20:20:44.845Z,3.43
2023-02-19T20:23:11.376Z,2.90
2023-02-19T20:25:37.906Z,3.17
2023-02-19T20:28:04.486Z,3.10
2023-02-19T20:30:30.991Z,2.63
2023-02-19T20:32:57.562Z,3.20
2023-02-19T20:35:28.466Z,2.90
2023-02-19T20:37:55.602Z,3.37
2023-02-19T20:40:27.344Z,3.53
2023-02-19T20:42:54.139Z,2.80
2023-02-19T20:45:21.379Z,3.10
2023-02-19T20:47:48.032Z,2.77
2023-02-19T20:50:17.358Z,2.97
2023-02-19T20:52:43.980Z,2.77
2023-02-19T20:55:10.561Z,2.80
2023-02-19T20:57:37.616Z,3.13
2023-02-19T21:00:05.705Z,3.37
2023-02-19T21:02:32.216Z,3.60
2023-02-19T21:04:58.772Z,3.43
2023-02-19T21:07:25.606Z,3.43
2023-02-19T21:09:52.640Z,3.20
2023-02-19T21:12:20.466Z,3.17
2023-02-19T21:14:47.107Z,4.20
2023-02-19T21:17:13.698Z,2.93
2023-02-19T21:19:40.264Z,3.07
2023-02-19T21:22:06.775Z,3.37
2023-02-19T21:24:33.680Z,3.10
2023-02-19T21:27:00.437Z,3.00
2023-02-19T21:29:27.200Z,3.30
2023-02-19T21:31:56.008Z,3.20
2023-02-19T21:34:28.511Z,3.30
2023-02-19T21:36:57.500Z,3.90
2023-02-19T21:39:25.632Z,3.33
2023-02-19T21:41:52.323Z,3.20
2023-02-19T21:44:21.256Z,3.20
2023-02-19T21:46:48.109Z,3.40
2023-02-19T21:49:14.618Z,3.03
2023-02-19T21:51:42.706Z,3.20
2023-02-19T21:54:24.708Z,3.30
2023-02-19T21:56:52.579Z,2.93
2023-02-19T21:59:20.333Z,3.37
2023-02-19T22:01:47.124Z,3.00
2023-02-19T22:04:16.910Z,2.60
2023-02-19T22:06:44.219Z,3.40
2023-02-19T22:09:11.176Z,3.47
2023-02-19T22:11:38.181Z,3.47
2023-02-19T22:14:04.671Z,3.20
2023-02-19T22:16:31.273Z,3.13
2023-02-19T22:18:59.287Z,3.10
2023-02-19T22:21:33.633Z,2.83
2023-02-19T22:24:01.393Z,2.77
2023-02-19T22:26:34.568Z,3.03
2023-02-19T22:29:05.928Z,3.17
2023-02-19T22:31:32.957Z,2.63
2023-02-19T22:33:59.515Z,2.33
2023-02-19T22:36:28.634Z,2.77
2023-02-19T22:38:55.105Z,2.80
2023-02-19T22:41:21.747Z,3.60
2023-02-19T22:43:48.991Z,2.70
2023-02-19T22:46:19.499Z,3.37
2023-02-19T22:48:46.327Z,3.60
2023-02-19T22:51:15.143Z,2.80
2023-02-19T22:53:51.688Z,2.90
2023-02-19T22:56:19.614Z,2.73
2023-02-19T22:58:46.071Z,2.67
2023-02-19T23:01:13.413Z,2.40
2023-02-19T23:03:57.168Z,2.63
2023-02-19T23:06:28.592Z,2.50
2023-02-19T23:08:56.715Z,2.50
2023-02-19T23:11:25.749Z,2.37
2023-02-19T23:13:52.683Z,3.13
2023-02-19T23:16:19.240Z,2.73
2023-02-19T23:18:45.988Z,2.77
2023-02-19T23:21:13.265Z,2.90
2023-02-19T23:23:43.525Z,2.83
2023-02-19T23:26:10.532Z,3.10
2023-02-19T23:28:39.200Z,3.50
2023-02-19T23:31:05.911Z,3.40
2023-02-19T23:33:32.505Z,3.17
2023-02-19T23:35:59.272Z,2.40
2023-02-19T23:38:25.749Z,3.10
2023-02-19T23:40:52.239Z,2.60
2023-02-19T23:43:18.705Z,3.07
2023-02-19T23:45:45.153Z,2.90
2023-02-19T23:48:11.813Z,2.67
2023-02-19T23:50:38.368Z,2.87
2023-02-19T23:53:04.873Z,2.87
2023-02-19T23:55:31.311Z,2.63
2023-02-19T23:57:57.785Z,2.83
